Impacts METAR Board
IDs:

KDFW - Dallas-Ft Worth Intl, TX, US

Updated at: 0300 UTC 10 Dec 2018
Potential Impact None Slight Moderate High
Time 09/15Z 09/16Z 09/17Z 09/18Z 09/19Z 09/20Z 09/21Z 09/22Z 09/23Z 10/00Z 10/01Z 10/02Z 10/03Z
Temp38 40 44 46 48 49 50 50 49 45 45 43 42
Dewpt32 31 32 34 34 34 34 35 35 32 32 31 30
Altim30.34 30.35 30.35 30.33 30.30 30.29 30.28 30.28 30.29 30.31 30.32 30.33 30.34
VIS7 9 10 10 10 10 10 10 10 10 10 10 10
CIG38 60 37 -- -- -- -- -- -- -- -- -- --
CoverOVCBKNBKNFEWFEWSCTFEWFEWFEWFEWCLRCLRCLR
FltCatVFRVFRVFRVFRVFRVFRVFRVFRVFRVFRVFRVFRVFR
WX--------------------------
WDir340350350340330330360320320330320310320
WSpd11 10 11 10 11 10 11 9 8 7 10 9 10
WGst-- -- -- -- -- -- -- -- -- -- -- -- --
Raw hourly METARs
KDFW 091453Z 34011KT 7SM OVC038 03/00 A3034 RMK AO2 SLP275 T00330000 53023 $
KDFW 091553Z 35010KT 9SM SCT039 BKN060 BKN250 04/M01 A3035 RMK AO2 SLP277 T00441006 $
KDFW 091653Z 35011KT 10SM BKN037 BKN060 BKN250 07/00 A3035 RMK AO2 SLP277 T00670000 $
KDFW 091753Z 34010KT 10SM FEW040 FEW060 FEW250 08/01 A3033 RMK AO2 SLP272 T00780011 10078 20028 58002 $
KDFW 091853Z 33011KT 10SM FEW040 FEW250 09/01 A3030 RMK AO2 SLP261 T00890011 $
KDFW 091953Z 33010KT 10SM SCT043 SCT250 09/01 A3029 RMK AO2 SLP256 T00940011 $
KDFW 092053Z 36011KT 10SM FEW043 10/01 A3028 RMK AO2 SLP254 T01000011 56016 $
KDFW 092153Z 32009KT 10SM FEW040 10/02 A3028 RMK AO2 SLP253 T01000017 $
KDFW 092253Z 32008KT 10SM FEW040 09/02 A3029 RMK AO2 SLP257 T00940017 $
KDFW 092353Z 33007KT 10SM FEW040 07/00 A3031 RMK AO2 SLP263 T00720000 10100 20072 53008 $
KDFW 100053Z 32010KT 10SM CLR 07/00 A3032 RMK AO2 SLP267 T00720000 $
KDFW 100153Z 31009KT 10SM CLR 06/M01 A3033 RMK AO2 SLP272 T00611006 $
KDFW 100253Z 32010KT 10SM CLR 06/M01 A3034 RMK AO2 SLP275 T00561011 51012 $



Page loaded:  03:49 UTC  |   07:49 PM Pacific  |   08:49 PM Mountain  |   09:49 PM Central  |   10:49 PM Eastern

 

ADVISORIES

FORECASTS

FORECASTS

OBSERVATIONS

USER TOOLS

ABOUT US